Pagrindinis puslapis
METAR-TAF:

METAR-TAF

Oro uostai :

Pelotasas, Pietų Rio Grandė, Brazilija

platuma: 31-52S, ilguma: 052-21W, Aukštis: 13 m

Dabartinis oras

Ataskaita buvo paskelbta 35 minutes, ne 10:15 UTC
Ramus vėjas
Temperatūra 22°C
Drėgmė 65%
Slėgis 1012 hPa
Matomumas 10 km arba daugiau
nėra debesų žemiau 1500 m ir nėra kamuolinių lietaus debesų

METAR: SBPK 091015Z 00000KT CAVOK 22/15 Q1012

Laikas: 07:50 (10:50 UTC)

Prognozė

Ataskaita buvo paskelbta 7 valandos ir 50 minutes, ne 03:00 UTC
Prognozė galioja nuo 09 metu 06 UTC su 10 metu 06 UTC
Vėjas 7 kt iš Vakarų/Pietvakarių
Matomumas 10 km arba daugiau
nėra debesų žemiau 1500 m ir nėra kamuolinių lietaus debesų
Tapsmas
nuo 09 metu 12 UTC su 09 metu 14 UTC
Vėjas 8 kt iš Rytų/Pietryčių

TAF: SBPK 090300Z 0906/1006 24007KT CAVOK TN19/0908Z TX33/0918Z BECMG 0912/0914 11008KT RMK PDJ

Orai ataskaitas ir orų prognozės (METAR, TAF).

turimą stotys yra geltonos ir raudonos taškus žemėlapyje.

Perkelti pele per norėdami pamatyti stoties vardą.

Tada spustelėkite, norėdami matyti oro stebėjimo ir prognozės.

Norėdami pakeisti žemėlapį: spustelėkite ant žalios mygtukų su juodo kryžiaus žemyn,; žalią mygtuką su brūkšneliu, jei norite nutolinti; arba žalių rodyklių gretimoms žemėlapius.


METAR-TAF: